sensor_id;sensor_type;location;lat;lon;timestamp;P1;durP1;ratioP1;P2;durP2;ratioP2
40945;SDS011;55635;50.264;11.918;2024-03-07T00:01:00;20.73;;;11.45;;
40945;SDS011;55635;50.264;11.918;2024-03-07T00:03:44;15.50;;;11.07;;
40945;SDS011;55635;50.264;11.918;2024-03-07T00:06:24;16.63;;;10.40;;
40945;SDS011;55635;50.264;11.918;2024-03-07T00:09:05;18.10;;;10.93;;
40945;SDS011;55635;50.264;11.918;2024-03-07T00:11:46;14.77;;;9.93;;
40945;SDS011;55635;50.264;11.918;2024-03-07T00:14:27;18.60;;;10.85;;
40945;SDS011;55635;50.264;11.918;2024-03-07T00:17:08;16.73;;;9.70;;
40945;SDS011;55635;50.264;11.918;2024-03-07T00:19:49;14.82;;;9.27;;
40945;SDS011;55635;50.264;11.918;2024-03-07T00:22:31;15.70;;;10.13;;
40945;SDS011;55635;50.264;11.918;2024-03-07T00:25:12;16.30;;;9.52;;
40945;SDS011;55635;50.264;11.918;2024-03-07T00:27:54;22.10;;;10.00;;
40945;SDS011;55635;50.264;11.918;2024-03-07T00:30:37;15.40;;;9.57;;
40945;SDS011;55635;50.264;11.918;2024-03-07T00:33:18;15.98;;;9.07;;
40945;SDS011;55635;50.264;11.918;2024-03-07T00:36:02;16.92;;;9.65;;
40945;SDS011;55635;50.264;11.918;2024-03-07T00:38:43;13.07;;;9.38;;
40945;SDS011;55635;50.264;11.918;2024-03-07T00:41:24;15.02;;;9.38;;
40945;SDS011;55635;50.264;11.918;2024-03-07T00:44:07;15.85;;;9.05;;
40945;SDS011;55635;50.264;11.918;2024-03-07T00:46:51;15.52;;;9.32;;
40945;SDS011;55635;50.264;11.918;2024-03-07T00:49:32;16.08;;;8.63;;
40945;SDS011;55635;50.264;11.918;2024-03-07T00:52:13;15.10;;;9.52;;
40945;SDS011;55635;50.264;11.918;2024-03-07T00:54:55;17.33;;;10.20;;
40945;SDS011;55635;50.264;11.918;2024-03-07T00:57:36;15.98;;;9.27;;
40945;SDS011;55635;50.264;11.918;2024-03-07T01:00:17;16.70;;;9.43;;
40945;SDS011;55635;50.264;11.918;2024-03-07T01:03:01;16.48;;;9.85;;
40945;SDS011;55635;50.264;11.918;2024-03-07T01:05:43;17.20;;;9.65;;
40945;SDS011;55635;50.264;11.918;2024-03-07T01:08:24;15.82;;;9.65;;
40945;SDS011;55635;50.264;11.918;2024-03-07T01:11:06;14.95;;;9.57;;
40945;SDS011;55635;50.264;11.918;2024-03-07T01:13:51;19.27;;;10.80;;
40945;SDS011;55635;50.264;11.918;2024-03-07T01:16:32;17.00;;;9.60;;
40945;SDS011;55635;50.264;11.918;2024-03-07T01:19:13;16.75;;;10.60;;
40945;SDS011;55635;50.264;11.918;2024-03-07T01:21:55;14.98;;;9.68;;
40945;SDS011;55635;50.264;11.918;2024-03-07T01:24:36;21.58;;;10.85;;
40945;SDS011;55635;50.264;11.918;2024-03-07T01:27:17;16.58;;;9.95;;
40945;SDS011;55635;50.264;11.918;2024-03-07T01:29:58;16.83;;;9.50;;
40945;SDS011;55635;50.264;11.918;2024-03-07T01:32:39;20.08;;;10.80;;
40945;SDS011;55635;50.264;11.918;2024-03-07T01:35:20;17.10;;;10.40;;
40945;SDS011;55635;50.264;11.918;2024-03-07T01:38:01;15.88;;;9.80;;
40945;SDS011;55635;50.264;11.918;2024-03-07T01:40:43;16.45;;;10.38;;
40945;SDS011;55635;50.264;11.918;2024-03-07T01:43:25;19.17;;;10.23;;
40945;SDS011;55635;50.264;11.918;2024-03-07T01:46:06;17.30;;;10.15;;
40945;SDS011;55635;50.264;11.918;2024-03-07T01:48:48;22.60;;;11.82;;
40945;SDS011;55635;50.264;11.918;2024-03-07T01:51:29;21.63;;;12.02;;
40945;SDS011;55635;50.264;11.918;2024-03-07T01:54:10;23.40;;;12.15;;
40945;SDS011;55635;50.264;11.918;2024-03-07T01:56:51;18.38;;;11.82;;
40945;SDS011;55635;50.264;11.918;2024-03-07T01:59:33;21.27;;;12.52;;
40945;SDS011;55635;50.264;11.918;2024-03-07T02:02:15;25.55;;;14.02;;
40945;SDS011;55635;50.264;11.918;2024-03-07T02:04:55;20.35;;;12.25;;
40945;SDS011;55635;50.264;11.918;2024-03-07T02:07:37;25.65;;;13.45;;
40945;SDS011;55635;50.264;11.918;2024-03-07T02:10:19;24.25;;;13.50;;
40945;SDS011;55635;50.264;11.918;2024-03-07T02:12:59;23.20;;;13.05;;
40945;SDS011;55635;50.264;11.918;2024-03-07T02:15:41;25.23;;;13.82;;
40945;SDS011;55635;50.264;11.918;2024-03-07T02:18:23;26.23;;;14.25;;
40945;SDS011;55635;50.264;11.918;2024-03-07T02:21:07;24.73;;;13.02;;
40945;SDS011;55635;50.264;11.918;2024-03-07T02:23:51;26.35;;;14.05;;
40945;SDS011;55635;50.264;11.918;2024-03-07T02:26:33;28.40;;;14.27;;
40945;SDS011;55635;50.264;11.918;2024-03-07T02:29:14;27.25;;;14.93;;
40945;SDS011;55635;50.264;11.918;2024-03-07T02:31:55;25.52;;;14.15;;
40945;SDS011;55635;50.264;11.918;2024-03-07T02:34:36;26.85;;;13.75;;
40945;SDS011;55635;50.264;11.918;2024-03-07T02:37:18;29.23;;;15.60;;
40945;SDS011;55635;50.264;11.918;2024-03-07T02:39:59;28.48;;;15.43;;
40945;SDS011;55635;50.264;11.918;2024-03-07T02:42:40;25.13;;;14.43;;
40945;SDS011;55635;50.264;11.918;2024-03-07T02:45:21;32.28;;;16.50;;
40945;SDS011;55635;50.264;11.918;2024-03-07T02:48:03;28.83;;;15.10;;
40945;SDS011;55635;50.264;11.918;2024-03-07T02:50:49;26.70;;;15.20;;
40945;SDS011;55635;50.264;11.918;2024-03-07T02:53:30;28.13;;;15.73;;
40945;SDS011;55635;50.264;11.918;2024-03-07T02:56:11;29.58;;;15.93;;
40945;SDS011;55635;50.264;11.918;2024-03-07T02:58:52;27.00;;;15.63;;
40945;SDS011;55635;50.264;11.918;2024-03-07T03:01:33;29.73;;;15.60;;
40945;SDS011;55635;50.264;11.918;2024-03-07T03:04:14;31.92;;;16.80;;
40945;SDS011;55635;50.264;11.918;2024-03-07T03:06:55;28.60;;;16.23;;
40945;SDS011;55635;50.264;11.918;2024-03-07T03:09:36;31.02;;;16.67;;
40945;SDS011;55635;50.264;11.918;2024-03-07T03:12:23;33.15;;;17.38;;
40945;SDS011;55635;50.264;11.918;2024-03-07T03:15:06;33.42;;;17.02;;
40945;SDS011;55635;50.264;11.918;2024-03-07T03:17:47;32.30;;;17.23;;
40945;SDS011;55635;50.264;11.918;2024-03-07T03:20:28;32.15;;;17.63;;
40945;SDS011;55635;50.264;11.918;2024-03-07T03:23:18;34.97;;;17.27;;
40945;SDS011;55635;50.264;11.918;2024-03-07T03:26:00;34.25;;;17.80;;
40945;SDS011;55635;50.264;11.918;2024-03-07T03:28:41;33.33;;;17.58;;
40945;SDS011;55635;50.264;11.918;2024-03-07T03:31:22;30.88;;;16.65;;
40945;SDS011;55635;50.264;11.918;2024-03-07T03:34:03;30.85;;;17.77;;
40945;SDS011;55635;50.264;11.918;2024-03-07T03:36:45;34.25;;;17.77;;
40945;SDS011;55635;50.264;11.918;2024-03-07T03:39:26;36.13;;;18.23;;
40945;SDS011;55635;50.264;11.918;2024-03-07T03:42:07;36.42;;;19.10;;
40945;SDS011;55635;50.264;11.918;2024-03-07T03:44:49;30.40;;;15.70;;
40945;SDS011;55635;50.264;11.918;2024-03-07T03:47:29;34.40;;;17.83;;
40945;SDS011;55635;50.264;11.918;2024-03-07T03:50:12;37.90;;;18.95;;
40945;SDS011;55635;50.264;11.918;2024-03-07T03:52:53;37.10;;;19.40;;
40945;SDS011;55635;50.264;11.918;2024-03-07T03:55:35;39.00;;;19.30;;
40945;SDS011;55635;50.264;11.918;2024-03-07T03:58:17;39.40;;;20.38;;
40945;SDS011;55635;50.264;11.918;2024-03-07T04:00:58;44.20;;;21.30;;
40945;SDS011;55635;50.264;11.918;2024-03-07T04:03:40;48.10;;;20.52;;
40945;SDS011;55635;50.264;11.918;2024-03-07T04:06:21;40.63;;;21.50;;
40945;SDS011;55635;50.264;11.918;2024-03-07T04:09:02;41.88;;;20.98;;
40945;SDS011;55635;50.264;11.918;2024-03-07T04:11:45;39.53;;;21.08;;
40945;SDS011;55635;50.264;11.918;2024-03-07T04:14:26;44.78;;;20.90;;
40945;SDS011;55635;50.264;11.918;2024-03-07T04:17:08;42.38;;;21.83;;
40945;SDS011;55635;50.264;11.918;2024-03-07T04:19:52;38.67;;;20.85;;
40945;SDS011;55635;50.264;11.918;2024-03-07T04:22:33;42.55;;;21.50;;
40945;SDS011;55635;50.264;11.918;2024-03-07T04:25:15;41.05;;;21.20;;
40945;SDS011;55635;50.264;11.918;2024-03-07T04:27:56;41.08;;;21.02;;
40945;SDS011;55635;50.264;11.918;2024-03-07T04:30:38;44.72;;;21.17;;
40945;SDS011;55635;50.264;11.918;2024-03-07T04:33:19;46.08;;;22.08;;
40945;SDS011;55635;50.264;11.918;2024-03-07T04:36:00;45.65;;;21.75;;
40945;SDS011;55635;50.264;11.918;2024-03-07T04:38:42;50.13;;;24.02;;
40945;SDS011;55635;50.264;11.918;2024-03-07T04:41:25;49.58;;;23.73;;
40945;SDS011;55635;50.264;11.918;2024-03-07T04:44:08;48.85;;;24.38;;
40945;SDS011;55635;50.264;11.918;2024-03-07T04:46:50;47.60;;;23.38;;
40945;SDS011;55635;50.264;11.918;2024-03-07T04:49:35;51.80;;;23.23;;
40945;SDS011;55635;50.264;11.918;2024-03-07T04:52:16;47.35;;;23.27;;
40945;SDS011;55635;50.264;11.918;2024-03-07T04:54:57;54.22;;;23.58;;
40945;SDS011;55635;50.264;11.918;2024-03-07T04:57:38;52.42;;;24.33;;
40945;SDS011;55635;50.264;11.918;2024-03-07T05:00:21;52.83;;;24.15;;
40945;SDS011;55635;50.264;11.918;2024-03-07T05:03:03;56.30;;;24.35;;
40945;SDS011;55635;50.264;11.918;2024-03-07T05:05:45;54.40;;;24.88;;
40945;SDS011;55635;50.264;11.918;2024-03-07T05:08:26;53.05;;;23.65;;
40945;SDS011;55635;50.264;11.918;2024-03-07T05:11:07;52.40;;;23.73;;
40945;SDS011;55635;50.264;11.918;2024-03-07T05:13:48;50.15;;;24.30;;
40945;SDS011;55635;50.264;11.918;2024-03-07T05:16:30;53.13;;;23.55;;
40945;SDS011;55635;50.264;11.918;2024-03-07T05:19:11;52.22;;;23.48;;
40945;SDS011;55635;50.264;11.918;2024-03-07T05:21:53;58.33;;;26.00;;
40945;SDS011;55635;50.264;11.918;2024-03-07T05:24:35;52.42;;;23.75;;
40945;SDS011;55635;50.264;11.918;2024-03-07T05:27:17;65.18;;;26.20;;
40945;SDS011;55635;50.264;11.918;2024-03-07T05:29:57;65.28;;;24.13;;
40945;SDS011;55635;50.264;11.918;2024-03-07T05:32:39;52.25;;;23.58;;
40945;SDS011;55635;50.264;11.918;2024-03-07T05:35:20;54.92;;;23.83;;
40945;SDS011;55635;50.264;11.918;2024-03-07T05:38:01;53.80;;;22.65;;
40945;SDS011;55635;50.264;11.918;2024-03-07T05:40:44;50.55;;;23.17;;
40945;SDS011;55635;50.264;11.918;2024-03-07T05:43:26;54.90;;;24.88;;
40945;SDS011;55635;50.264;11.918;2024-03-07T05:46:07;54.65;;;23.17;;
40945;SDS011;55635;50.264;11.918;2024-03-07T05:48:50;48.92;;;22.83;;
40945;SDS011;55635;50.264;11.918;2024-03-07T05:51:36;55.58;;;24.35;;
40945;SDS011;55635;50.264;11.918;2024-03-07T05:54:17;58.80;;;25.23;;
40945;SDS011;55635;50.264;11.918;2024-03-07T05:56:58;61.78;;;26.10;;
40945;SDS011;55635;50.264;11.918;2024-03-07T05:59:40;61.53;;;27.23;;
40945;SDS011;55635;50.264;11.918;2024-03-07T06:02:21;58.03;;;24.48;;
40945;SDS011;55635;50.264;11.918;2024-03-07T06:05:02;66.53;;;25.85;;
40945;SDS011;55635;50.264;11.918;2024-03-07T06:07:44;52.80;;;23.92;;
40945;SDS011;55635;50.264;11.918;2024-03-07T06:10:29;59.58;;;24.52;;
40945;SDS011;55635;50.264;11.918;2024-03-07T06:13:13;61.40;;;25.70;;
40945;SDS011;55635;50.264;11.918;2024-03-07T06:15:56;65.80;;;25.30;;
40945;SDS011;55635;50.264;11.918;2024-03-07T06:18:37;61.95;;;24.48;;
40945;SDS011;55635;50.264;11.918;2024-03-07T06:21:18;58.20;;;24.77;;
40945;SDS011;55635;50.264;11.918;2024-03-07T06:24:00;58.20;;;24.10;;
40945;SDS011;55635;50.264;11.918;2024-03-07T06:26:42;59.33;;;25.42;;
40945;SDS011;55635;50.264;11.918;2024-03-07T06:29:29;51.88;;;22.50;;
40945;SDS011;55635;50.264;11.918;2024-03-07T06:32:10;56.65;;;22.05;;
40945;SDS011;55635;50.264;11.918;2024-03-07T06:34:51;56.65;;;23.27;;
40945;SDS011;55635;50.264;11.918;2024-03-07T06:37:32;59.28;;;24.55;;
40945;SDS011;55635;50.264;11.918;2024-03-07T06:40:14;44.97;;;20.67;;
40945;SDS011;55635;50.264;11.918;2024-03-07T06:43:01;48.20;;;20.65;;
40945;SDS011;55635;50.264;11.918;2024-03-07T06:45:46;51.88;;;22.38;;
40945;SDS011;55635;50.264;11.918;2024-03-07T06:48:30;54.20;;;21.40;;
40945;SDS011;55635;50.264;11.918;2024-03-07T06:51:10;51.58;;;23.13;;
40945;SDS011;55635;50.264;11.918;2024-03-07T06:53:53;47.80;;;18.95;;
40945;SDS011;55635;50.264;11.918;2024-03-07T06:56:36;37.13;;;17.70;;
40945;SDS011;55635;50.264;11.918;2024-03-07T06:59:17;37.85;;;17.55;;
40945;SDS011;55635;50.264;11.918;2024-03-07T07:01:59;35.53;;;17.88;;
40945;SDS011;55635;50.264;11.918;2024-03-07T07:04:41;33.90;;;15.68;;
40945;SDS011;55635;50.264;11.918;2024-03-07T07:07:22;45.00;;;20.52;;
40945;SDS011;55635;50.264;11.918;2024-03-07T07:10:04;44.20;;;20.30;;
40945;SDS011;55635;50.264;11.918;2024-03-07T07:12:48;47.80;;;20.85;;
40945;SDS011;55635;50.264;11.918;2024-03-07T07:15:30;53.55;;;21.25;;
40945;SDS011;55635;50.264;11.918;2024-03-07T07:18:11;47.63;;;21.67;;
40945;SDS011;55635;50.264;11.918;2024-03-07T07:20:53;44.80;;;20.77;;
40945;SDS011;55635;50.264;11.918;2024-03-07T07:23:36;44.47;;;20.17;;
40945;SDS011;55635;50.264;11.918;2024-03-07T07:26:17;50.03;;;21.38;;
40945;SDS011;55635;50.264;11.918;2024-03-07T07:28:58;48.15;;;21.48;;
40945;SDS011;55635;50.264;11.918;2024-03-07T07:31:39;51.50;;;22.85;;
40945;SDS011;55635;50.264;11.918;2024-03-07T07:34:20;53.70;;;23.90;;
40945;SDS011;55635;50.264;11.918;2024-03-07T07:37:01;56.63;;;23.25;;
40945;SDS011;55635;50.264;11.918;2024-03-07T07:39:42;53.58;;;23.75;;
40945;SDS011;55635;50.264;11.918;2024-03-07T07:42:26;50.95;;;23.20;;
40945;SDS011;55635;50.264;11.918;2024-03-07T07:45:08;46.72;;;22.42;;
40945;SDS011;55635;50.264;11.918;2024-03-07T07:47:53;50.47;;;23.70;;
40945;SDS011;55635;50.264;11.918;2024-03-07T07:50:34;46.47;;;22.20;;
40945;SDS011;55635;50.264;11.918;2024-03-07T07:53:15;50.30;;;24.50;;
40945;SDS011;55635;50.264;11.918;2024-03-07T07:55:56;49.75;;;22.00;;
40945;SDS011;55635;50.264;11.918;2024-03-07T07:58:37;46.28;;;23.05;;
40945;SDS011;55635;50.264;11.918;2024-03-07T08:01:18;42.13;;;21.85;;
40945;SDS011;55635;50.264;11.918;2024-03-07T08:04:00;48.95;;;23.75;;
40945;SDS011;55635;50.264;11.918;2024-03-07T08:06:40;49.03;;;23.52;;
40945;SDS011;55635;50.264;11.918;2024-03-07T08:09:22;54.08;;;22.67;;
40945;SDS011;55635;50.264;11.918;2024-03-07T08:12:03;48.25;;;22.77;;
40945;SDS011;55635;50.264;11.918;2024-03-07T08:14:46;42.20;;;20.05;;
40945;SDS011;55635;50.264;11.918;2024-03-07T08:17:27;44.58;;;22.02;;
40945;SDS011;55635;50.264;11.918;2024-03-07T08:20:09;41.85;;;19.92;;
40945;SDS011;55635;50.264;11.918;2024-03-07T08:22:58;42.75;;;19.88;;
40945;SDS011;55635;50.264;11.918;2024-03-07T08:25:39;40.78;;;20.48;;
40945;SDS011;55635;50.264;11.918;2024-03-07T08:28:21;43.20;;;20.63;;
40945;SDS011;55635;50.264;11.918;2024-03-07T08:31:02;46.05;;;22.63;;
40945;SDS011;55635;50.264;11.918;2024-03-07T08:33:44;44.33;;;21.23;;
40945;SDS011;55635;50.264;11.918;2024-03-07T08:36:26;44.42;;;21.58;;
40945;SDS011;55635;50.264;11.918;2024-03-07T08:39:07;42.20;;;21.48;;
40945;SDS011;55635;50.264;11.918;2024-03-07T08:41:51;43.15;;;21.33;;
40945;SDS011;55635;50.264;11.918;2024-03-07T08:44:32;45.67;;;21.50;;
40945;SDS011;55635;50.264;11.918;2024-03-07T08:47:14;49.35;;;24.65;;
40945;SDS011;55635;50.264;11.918;2024-03-07T08:49:55;42.33;;;22.30;;
40945;SDS011;55635;50.264;11.918;2024-03-07T08:52:36;45.78;;;21.50;;
40945;SDS011;55635;50.264;11.918;2024-03-07T08:55:24;45.95;;;23.17;;
40945;SDS011;55635;50.264;11.918;2024-03-07T08:58:06;47.78;;;22.35;;
40945;SDS011;55635;50.264;11.918;2024-03-07T09:00:47;45.13;;;22.40;;
40945;SDS011;55635;50.264;11.918;2024-03-07T09:03:29;47.25;;;21.33;;
40945;SDS011;55635;50.264;11.918;2024-03-07T09:06:10;44.50;;;22.33;;
40945;SDS011;55635;50.264;11.918;2024-03-07T09:08:53;44.25;;;23.20;;
40945;SDS011;55635;50.264;11.918;2024-03-07T09:11:34;46.10;;;21.77;;
40945;SDS011;55635;50.264;11.918;2024-03-07T09:14:16;45.53;;;23.25;;
40945;SDS011;55635;50.264;11.918;2024-03-07T09:16:57;51.10;;;24.10;;
40945;SDS011;55635;50.264;11.918;2024-03-07T09:19:39;44.58;;;21.77;;
40945;SDS011;55635;50.264;11.918;2024-03-07T09:22:21;40.88;;;21.42;;
40945;SDS011;55635;50.264;11.918;2024-03-07T09:25:02;44.13;;;21.30;;
40945;SDS011;55635;50.264;11.918;2024-03-07T09:27:44;47.88;;;24.80;;
40945;SDS011;55635;50.264;11.918;2024-03-07T09:30:26;48.05;;;24.90;;
40945;SDS011;55635;50.264;11.918;2024-03-07T09:33:08;50.97;;;24.98;;
40945;SDS011;55635;50.264;11.918;2024-03-07T09:35:50;44.80;;;23.00;;
40945;SDS011;55635;50.264;11.918;2024-03-07T09:38:31;44.30;;;23.05;;
40945;SDS011;55635;50.264;11.918;2024-03-07T09:41:14;42.33;;;21.38;;
40945;SDS011;55635;50.264;11.918;2024-03-07T09:43:56;41.92;;;21.80;;
40945;SDS011;55635;50.264;11.918;2024-03-07T09:46:40;41.67;;;21.48;;
40945;SDS011;55635;50.264;11.918;2024-03-07T09:49:21;42.50;;;21.30;;
40945;SDS011;55635;50.264;11.918;2024-03-07T09:52:04;38.35;;;20.52;;
40945;SDS011;55635;50.264;11.918;2024-03-07T09:54:54;34.88;;;19.75;;
40945;SDS011;55635;50.264;11.918;2024-03-07T09:57:35;38.25;;;20.05;;
40945;SDS011;55635;50.264;11.918;2024-03-07T10:00:19;37.67;;;20.42;;
40945;SDS011;55635;50.264;11.918;2024-03-07T10:03:06;36.83;;;19.90;;
40945;SDS011;55635;50.264;11.918;2024-03-07T10:05:49;33.33;;;18.50;;
40945;SDS011;55635;50.264;11.918;2024-03-07T10:08:30;33.60;;;18.73;;
40945;SDS011;55635;50.264;11.918;2024-03-07T10:11:11;34.10;;;19.05;;
40945;SDS011;55635;50.264;11.918;2024-03-07T10:13:54;32.00;;;18.05;;
40945;SDS011;55635;50.264;11.918;2024-03-07T10:16:35;33.45;;;18.23;;
40945;SDS011;55635;50.264;11.918;2024-03-07T10:19:16;32.40;;;18.85;;
40945;SDS011;55635;50.264;11.918;2024-03-07T10:21:58;31.63;;;17.50;;
40945;SDS011;55635;50.264;11.918;2024-03-07T10:24:50;31.10;;;17.25;;
40945;SDS011;55635;50.264;11.918;2024-03-07T10:27:33;27.08;;;14.93;;
40945;SDS011;55635;50.264;11.918;2024-03-07T10:30:17;24.00;;;13.43;;
40945;SDS011;55635;50.264;11.918;2024-03-07T10:33:02;27.08;;;14.13;;
40945;SDS011;55635;50.264;11.918;2024-03-07T10:35:46;26.02;;;14.27;;
40945;SDS011;55635;50.264;11.918;2024-03-07T10:38:29;26.20;;;14.20;;
40945;SDS011;55635;50.264;11.918;2024-03-07T10:41:10;22.67;;;13.20;;
40945;SDS011;55635;50.264;11.918;2024-03-07T10:43:52;19.92;;;12.43;;
40945;SDS011;55635;50.264;11.918;2024-03-07T10:46:40;23.50;;;13.32;;
40945;SDS011;55635;50.264;11.918;2024-03-07T10:49:25;24.95;;;14.02;;
40945;SDS011;55635;50.264;11.918;2024-03-07T10:55:15;26.75;;;14.50;;
40945;SDS011;55635;50.264;11.918;2024-03-07T11:01:08;26.77;;;17.20;;
40945;SDS011;55635;50.264;11.918;2024-03-07T11:03:53;29.38;;;16.17;;
40945;SDS011;55635;50.264;11.918;2024-03-07T11:06:37;27.02;;;17.05;;
40945;SDS011;55635;50.264;11.918;2024-03-07T11:09:19;28.45;;;15.85;;
40945;SDS011;55635;50.264;11.918;2024-03-07T11:12:04;28.33;;;16.48;;
40945;SDS011;55635;50.264;11.918;2024-03-07T11:14:47;29.48;;;15.70;;
40945;SDS011;55635;50.264;11.918;2024-03-07T11:17:30;27.85;;;16.02;;
40945;SDS011;55635;50.264;11.918;2024-03-07T11:20:23;28.48;;;16.88;;
40945;SDS011;55635;50.264;11.918;2024-03-07T11:26:09;20.63;;;13.57;;
40945;SDS011;55635;50.264;11.918;2024-03-07T11:28:51;24.40;;;14.25;;
40945;SDS011;55635;50.264;11.918;2024-03-07T11:31:32;22.73;;;14.07;;
40945;SDS011;55635;50.264;11.918;2024-03-07T11:34:19;23.35;;;13.73;;
40945;SDS011;55635;50.264;11.918;2024-03-07T11:37:02;26.23;;;13.93;;
40945;SDS011;55635;50.264;11.918;2024-03-07T11:39:48;21.63;;;14.15;;
40945;SDS011;55635;50.264;11.918;2024-03-07T11:42:33;23.10;;;12.68;;
40945;SDS011;55635;50.264;11.918;2024-03-07T11:45:16;20.35;;;13.77;;
40945;SDS011;55635;50.264;11.918;2024-03-07T11:48:12;19.20;;;11.98;;
40945;SDS011;55635;50.264;11.918;2024-03-07T11:50:56;22.67;;;12.50;;
40945;SDS011;55635;50.264;11.918;2024-03-07T11:53:39;18.52;;;12.45;;
40945;SDS011;55635;50.264;11.918;2024-03-07T11:56:21;21.08;;;13.73;;
40945;SDS011;55635;50.264;11.918;2024-03-07T11:59:02;19.02;;;12.30;;
40945;SDS011;55635;50.264;11.918;2024-03-07T12:01:44;18.25;;;12.40;;
40945;SDS011;55635;50.264;11.918;2024-03-07T12:04:26;19.70;;;11.77;;
40945;SDS011;55635;50.264;11.918;2024-03-07T12:07:07;19.33;;;11.95;;
40945;SDS011;55635;50.264;11.918;2024-03-07T12:09:50;20.00;;;12.02;;
40945;SDS011;55635;50.264;11.918;2024-03-07T12:12:33;22.90;;;12.98;;
40945;SDS011;55635;50.264;11.918;2024-03-07T12:15:18;19.50;;;12.20;;
40945;SDS011;55635;50.264;11.918;2024-03-07T12:18:01;35.97;;;16.35;;
40945;SDS011;55635;50.264;11.918;2024-03-07T12:20:43;17.77;;;11.55;;
40945;SDS011;55635;50.264;11.918;2024-03-07T12:23:31;18.27;;;12.27;;
40945;SDS011;55635;50.264;11.918;2024-03-07T12:26:13;17.98;;;11.68;;
40945;SDS011;55635;50.264;11.918;2024-03-07T12:29:06;18.27;;;13.35;;
40945;SDS011;55635;50.264;11.918;2024-03-07T12:31:51;21.13;;;12.15;;
40945;SDS011;55635;50.264;11.918;2024-03-07T12:34:36;20.25;;;12.68;;
40945;SDS011;55635;50.264;11.918;2024-03-07T12:37:20;20.08;;;13.18;;
40945;SDS011;55635;50.264;11.918;2024-03-07T12:40:15;21.13;;;13.85;;
40945;SDS011;55635;50.264;11.918;2024-03-07T12:42:59;21.35;;;13.95;;
40945;SDS011;55635;50.264;11.918;2024-03-07T12:45:52;20.17;;;13.25;;
40945;SDS011;55635;50.264;11.918;2024-03-07T12:48:38;19.73;;;13.20;;
40945;SDS011;55635;50.264;11.918;2024-03-07T12:51:19;17.70;;;12.55;;
40945;SDS011;55635;50.264;11.918;2024-03-07T12:54:05;21.05;;;12.90;;
40945;SDS011;55635;50.264;11.918;2024-03-07T12:56:48;18.25;;;12.52;;
40945;SDS011;55635;50.264;11.918;2024-03-07T12:59:32;24.33;;;13.60;;
40945;SDS011;55635;50.264;11.918;2024-03-07T13:02:13;17.45;;;12.88;;
40945;SDS011;55635;50.264;11.918;2024-03-07T13:04:54;19.33;;;13.57;;
40945;SDS011;55635;50.264;11.918;2024-03-07T13:07:35;22.08;;;13.88;;
40945;SDS011;55635;50.264;11.918;2024-03-07T13:10:17;22.05;;;14.02;;
40945;SDS011;55635;50.264;11.918;2024-03-07T13:13:00;19.10;;;12.57;;
40945;SDS011;55635;50.264;11.918;2024-03-07T13:15:43;16.20;;;12.35;;
40945;SDS011;55635;50.264;11.918;2024-03-07T13:18:27;20.25;;;14.25;;
40945;SDS011;55635;50.264;11.918;2024-03-07T13:21:08;21.58;;;13.57;;
40945;SDS011;55635;50.264;11.918;2024-03-07T13:23:50;21.58;;;13.52;;
40945;SDS011;55635;50.264;11.918;2024-03-07T13:26:31;24.30;;;14.10;;
40945;SDS011;55635;50.264;11.918;2024-03-07T13:29:12;18.95;;;12.73;;
40945;SDS011;55635;50.264;11.918;2024-03-07T13:31:54;21.65;;;13.43;;
40945;SDS011;55635;50.264;11.918;2024-03-07T13:34:36;20.02;;;13.52;;
40945;SDS011;55635;50.264;11.918;2024-03-07T13:37:18;21.27;;;13.35;;
40945;SDS011;55635;50.264;11.918;2024-03-07T13:39:59;20.63;;;13.50;;
40945;SDS011;55635;50.264;11.918;2024-03-07T13:43:00;22.55;;;13.38;;
40945;SDS011;55635;50.264;11.918;2024-03-07T13:45:41;22.85;;;13.00;;
40945;SDS011;55635;50.264;11.918;2024-03-07T13:48:24;21.88;;;13.52;;
40945;SDS011;55635;50.264;11.918;2024-03-07T13:51:05;21.05;;;12.98;;
40945;SDS011;55635;50.264;11.918;2024-03-07T13:53:49;19.35;;;12.68;;
40945;SDS011;55635;50.264;11.918;2024-03-07T14:03:10;21.15;;;13.25;;
40945;SDS011;55635;50.264;11.918;2024-03-07T14:06:08;19.65;;;13.35;;
40945;SDS011;55635;50.264;11.918;2024-03-07T14:22:30;21.55;;;13.90;;
40945;SDS011;55635;50.264;11.918;2024-03-07T14:31:54;20.05;;;11.73;;
40945;SDS011;55635;50.264;11.918;2024-03-07T14:37:52;18.23;;;11.90;;
40945;SDS011;55635;50.264;11.918;2024-03-07T14:40:53;21.40;;;12.05;;
40945;SDS011;55635;50.264;11.918;2024-03-07T14:43:36;16.90;;;11.85;;
40945;SDS011;55635;50.264;11.918;2024-03-07T14:46:18;20.27;;;14.23;;
40945;SDS011;55635;50.264;11.918;2024-03-07T14:49:00;22.75;;;14.02;;
40945;SDS011;55635;50.264;11.918;2024-03-07T14:51:41;19.85;;;12.93;;
40945;SDS011;55635;50.264;11.918;2024-03-07T14:54:22;19.10;;;13.13;;
40945;SDS011;55635;50.264;11.918;2024-03-07T14:57:04;20.88;;;13.25;;
40945;SDS011;55635;50.264;11.918;2024-03-07T14:59:45;20.02;;;13.80;;
40945;SDS011;55635;50.264;11.918;2024-03-07T15:02:26;22.75;;;12.93;;
40945;SDS011;55635;50.264;11.918;2024-03-07T15:05:07;20.45;;;13.38;;
40945;SDS011;55635;50.264;11.918;2024-03-07T15:07:48;21.52;;;13.77;;
40945;SDS011;55635;50.264;11.918;2024-03-07T15:10:34;22.15;;;12.95;;
40945;SDS011;55635;50.264;11.918;2024-03-07T15:13:16;21.45;;;14.02;;
40945;SDS011;55635;50.264;11.918;2024-03-07T15:15:58;24.52;;;13.90;;
40945;SDS011;55635;50.264;11.918;2024-03-07T15:18:39;23.05;;;13.52;;
40945;SDS011;55635;50.264;11.918;2024-03-07T15:21:23;24.58;;;13.73;;
40945;SDS011;55635;50.264;11.918;2024-03-07T15:24:04;19.73;;;13.15;;
40945;SDS011;55635;50.264;11.918;2024-03-07T15:26:46;25.65;;;14.50;;
40945;SDS011;55635;50.264;11.918;2024-03-07T15:29:30;30.25;;;15.27;;
40945;SDS011;55635;50.264;11.918;2024-03-07T15:32:11;25.10;;;16.02;;
40945;SDS011;55635;50.264;11.918;2024-03-07T15:34:54;25.75;;;15.05;;
40945;SDS011;55635;50.264;11.918;2024-03-07T15:37:41;24.10;;;15.27;;
40945;SDS011;55635;50.264;11.918;2024-03-07T15:40:22;24.00;;;15.55;;
40945;SDS011;55635;50.264;11.918;2024-03-07T15:43:03;26.08;;;15.80;;
40945;SDS011;55635;50.264;11.918;2024-03-07T15:45:48;25.80;;;15.02;;
40945;SDS011;55635;50.264;11.918;2024-03-07T15:48:31;27.25;;;15.40;;
40945;SDS011;55635;50.264;11.918;2024-03-07T15:51:13;24.08;;;15.38;;
40945;SDS011;55635;50.264;11.918;2024-03-07T15:53:54;26.52;;;15.13;;
40945;SDS011;55635;50.264;11.918;2024-03-07T15:56:35;27.73;;;16.30;;
40945;SDS011;55635;50.264;11.918;2024-03-07T15:59:17;26.85;;;15.60;;
40945;SDS011;55635;50.264;11.918;2024-03-07T16:01:58;22.75;;;14.88;;
40945;SDS011;55635;50.264;11.918;2024-03-07T16:04:39;26.42;;;15.35;;
40945;SDS011;55635;50.264;11.918;2024-03-07T16:07:20;24.40;;;15.77;;
40945;SDS011;55635;50.264;11.918;2024-03-07T16:10:01;30.50;;;16.27;;
40945;SDS011;55635;50.264;11.918;2024-03-07T16:12:43;27.67;;;16.20;;
40945;SDS011;55635;50.264;11.918;2024-03-07T16:15:25;27.08;;;15.10;;